Time;durP1;ratioP1;P1;durP2;ratioP2;P2;SDS_P1;SDS_P2;PMS_P1;PMS_P2;Temp;Humidity;BMP_temperature;BMP_pressure;BME280_temperature;BME280_humidity;BME280_pressure;Samples;Min_cycle;Max_cycle;Signal;HPM_P1;HPM_P2
2024/01/03 00:01:44;;;;;;;87.72;36.13;;;;;;;8.89;nan;99208.28;5059214;28;20136;-70
2024/01/03 00:04:23;;;;;;;75.85;33.65;;;;;;;8.76;nan;99200.06;5062226;28;20052;-70
2024/01/03 00:06:52;;;;;;;73.85;33.60;;;;;;;8.82;nan;99196.72;5063383;28;20045;-71
2024/01/03 00:09:21;;;;;;;81.70;34.38;;;;;;;8.86;nan;99200.66;5062802;28;20052;-71
2024/01/03 00:11:51;;;;;;;81.80;34.20;;;;;;;8.97;nan;99195.03;5063317;28;20059;-71
2024/01/03 00:14:32;;;;;;;86.53;36.15;;;;;;;8.76;nan;99205.34;5060743;28;20441;-71
2024/01/03 00:17:04;;;;;;;82.93;36.50;;;;;;;8.79;nan;99195.25;5061150;28;20040;-70
2024/01/03 00:19:39;;;;;;;82.70;35.28;;;;;;;8.73;nan;99203.84;5061699;28;20060;-71
2024/01/03 00:22:12;;;;;;;89.30;36.00;;;;;;;8.84;nan;99207.97;5063309;28;20745;-75
2024/01/03 00:24:48;;;;;;;86.72;34.50;;;;;;;8.73;nan;99203.84;5061549;28;20040;-73
2024/01/03 00:27:20;;;;;;;80.45;35.72;;;;;;;8.75;nan;99201.88;5060479;28;20554;-71
2024/01/03 00:29:53;;;;;;;81.45;36.33;;;;;;;8.85;nan;99206.97;5044140;28;20147;-73
2024/01/03 00:32:23;;;;;;;74.50;32.83;;;;;;;8.82;nan;99205.47;5060671;28;20048;-73
2024/01/03 00:34:54;;;;;;;89.10;35.67;;;;;;;8.66;nan;99210.81;5063845;28;20105;-72
2024/01/03 00:37:27;;;;;;;84.85;34.08;;;;;;;8.42;nan;99208.19;5062266;28;20060;-73
2024/01/03 00:39:58;;;;;;;86.38;34.70;;;;;;;8.70;nan;99206.81;5058841;28;20048;-74
2024/01/03 00:42:28;;;;;;;86.38;35.40;;;;;;;8.65;nan;99216.22;5041818;28;20535;-67
2024/01/03 00:44:57;;;;;;;92.32;39.67;;;;;;;8.66;nan;99209.97;5041939;28;20128;-74
2024/01/03 00:47:27;;;;;;;95.22;37.28;;;;;;;8.70;nan;99212.09;5043542;28;20142;-69
2024/01/03 00:49:56;;;;;;;95.00;39.47;;;;;;;8.71;nan;99205.84;5040318;28;20048;-73
2024/01/03 00:52:26;;;;;;;94.60;37.38;;;;;;;8.65;nan;99203.88;5043292;28;20055;-72
2024/01/03 00:54:55;;;;;;;96.70;38.38;;;;;;;8.54;nan;99206.88;5045663;28;20052;-68
2024/01/03 00:57:25;;;;;;;96.30;38.78;;;;;;;8.54;nan;99212.16;5060228;28;20053;-71
2024/01/03 00:59:54;;;;;;;98.82;39.38;;;;;;;8.52;nan;99209.66;5063237;28;20053;-71
2024/01/03 01:02:24;;;;;;;97.72;38.25;;;;;;;8.63;nan;99216.38;5043262;28;20060;-72
2024/01/03 01:04:53;;;;;;;96.35;38.80;;;;;;;8.71;nan;99224.31;5061435;28;20133;-73
2024/01/03 01:07:22;;;;;;;97.45;39.60;;;;;;;8.56;nan;99218.88;5051963;28;20114;-74
2024/01/03 01:09:52;;;;;;;102.97;39.47;;;;;;;8.73;nan;99226.78;5062218;28;20053;-74
2024/01/03 01:12:22;;;;;;;95.32;40.22;;;;;;;8.68;nan;99227.28;5069718;28;20043;-74
2024/01/03 01:14:52;;;;;;;103.40;42.38;;;;;;;8.92;nan;99231.69;5071189;28;20048;-74
2024/01/03 01:17:22;;;;;;;113.20;40.38;;;;;;;9.07;nan;99237.13;5044122;28;20057;-75
2024/01/03 01:19:51;;;;;;;100.88;40.88;;;;;;;8.82;nan;99239.81;5066953;28;20048;-75
2024/01/03 01:22:21;;;;;;;103.10;41.60;;;;;;;8.85;nan;99241.31;5046512;28;20422;-75
2024/01/03 01:24:50;;;;;;;107.82;42.97;;;;;;;8.69;nan;99244.78;5056655;28;20542;-75
2024/01/03 01:27:19;;;;;;;104.53;40.42;;;;;;;8.96;nan;99257.59;5046615;28;20551;-74
2024/01/03 01:29:49;;;;;;;103.60;41.78;;;;;;;8.91;nan;99254.66;5073257;28;20052;-75
2024/01/03 01:32:18;;;;;;;102.78;40.30;;;;;;;8.68;nan;99255.50;5054939;28;20097;-74
2024/01/03 01:34:48;;;;;;;109.55;41.17;;;;;;;8.79;nan;99271.84;5065634;28;20484;-74
2024/01/03 01:37:18;;;;;;;104.30;39.55;;;;;;;8.73;nan;99269.84;5052914;28;20039;-74
2024/01/03 01:39:47;;;;;;;104.18;41.03;;;;;;;8.77;nan;99259.78;5067183;28;20135;-75
2024/01/03 01:42:17;;;;;;;92.57;39.92;;;;;;;8.77;nan;99281.72;5053767;28;20086;-74
2024/01/03 01:44:46;;;;;;;95.88;39.38;;;;;;;8.81;nan;99288.31;5049179;28;20048;-74
2024/01/03 01:47:16;;;;;;;111.03;43.65;;;;;;;8.86;nan;99278.09;5043870;28;20792;-75
2024/01/03 01:49:46;;;;;;;98.25;38.85;;;;;;;8.85;nan;99289.63;5041170;28;20152;-75
2024/01/03 01:52:17;;;;;;;101.38;40.25;;;;;;;8.81;nan;99290.97;5058992;28;20041;-75
2024/01/03 01:54:48;;;;;;;100.38;40.63;;;;;;;8.80;nan;99301.72;5064891;28;20490;-74
2024/01/03 01:57:19;;;;;;;99.07;38.05;;;;;;;8.55;nan;99311.44;5042349;28;20056;-74
2024/01/03 01:59:49;;;;;;;96.95;40.22;;;;;;;8.50;nan;99305.81;5041523;28;20048;-75
2024/01/03 02:02:18;;;;;;;98.97;39.65;;;;;;;8.63;nan;99303.53;5046997;28;20084;-75
2024/01/03 02:04:49;;;;;;;98.35;38.00;;;;;;;8.62;nan;99298.41;5048072;28;20048;-75
2024/01/03 02:07:20;;;;;;;102.93;39.58;;;;;;;8.70;nan;99306.34;5064601;28;20049;-74
2024/01/03 02:09:50;;;;;;;99.90;39.30;;;;;;;8.62;nan;99299.25;5072902;28;20106;-75
2024/01/03 02:12:29;;;;;;;94.35;38.00;;;;;;;8.80;nan;99299.91;5064355;28;20052;-75
2024/01/03 02:14:59;;;;;;;101.82;40.95;;;;;;;8.49;nan;99296.28;5033191;28;20044;-75
2024/01/03 02:17:29;;;;;;;95.28;36.97;;;;;;;8.94;nan;99290.44;5047541;28;20040;-75
2024/01/03 02:20:00;;;;;;;98.10;38.85;;;;;;;8.60;nan;99298.56;5046571;28;20048;-75
2024/01/03 02:22:32;;;;;;;99.53;37.22;;;;;;;8.72;nan;99304.38;5062536;28;20036;-74
2024/01/03 02:25:04;;;;;;;94.72;39.45;;;;;;;8.65;nan;99309.47;5037077;28;20076;-74
2024/01/03 02:27:34;;;;;;;97.97;37.47;;;;;;;8.57;nan;99304.19;5059391;28;20059;-74
2024/01/03 02:30:04;;;;;;;97.25;39.33;;;;;;;8.68;nan;99317.06;5046855;28;20471;-72
2024/01/03 02:32:34;;;;;;;88.70;36.65;;;;;;;8.73;nan;99317.38;5065057;28;20437;-74
2024/01/03 02:35:05;;;;;;;93.63;37.67;;;;;;;8.64;nan;99328.94;5064608;28;20054;-73
2024/01/03 02:37:35;;;;;;;94.28;36.10;;;;;;;8.86;nan;99328.28;5053577;28;20145;-75
2024/01/03 02:40:06;;;;;;;96.25;37.55;;;;;;;8.81;nan;99324.47;5048998;28;20384;-74
2024/01/03 02:42:35;;;;;;;103.43;36.55;;;;;;;8.91;nan;99323.31;5054584;28;20125;-74
2024/01/03 02:45:05;;;;;;;92.28;36.42;;;;;;;8.89;nan;99324.50;5062512;28;20157;-73
2024/01/03 02:47:35;;;;;;;96.82;39.53;;;;;;;9.02;nan;99330.91;5062303;28;20052;-74
2024/01/03 02:50:06;;;;;;;97.90;38.97;;;;;;;8.85;nan;99331.91;5061781;28;20052;-74
2024/01/03 02:52:35;;;;;;;105.25;42.53;;;;;;;8.72;nan;99325.50;5062294;28;20058;-75
2024/01/03 02:55:05;;;;;;;101.05;39.58;;;;;;;8.63;nan;99323.84;5044370;28;20068;-76
2024/01/03 02:57:34;;;;;;;88.47;37.78;;;;;;;8.60;nan;99330.25;5045003;28;20064;-73
2024/01/03 03:00:04;;;;;;;93.32;36.70;;;;;;;8.63;nan;99337.03;5061214;28;20135;-74
2024/01/03 03:02:35;;;;;;;89.93;37.22;;;;;;;8.61;nan;99344.28;5062418;28;20044;-74
2024/01/03 03:05:05;;;;;;;95.25;38.45;;;;;;;8.56;nan;99348.25;5057339;28;20095;-73
2024/01/03 03:07:35;;;;;;;95.75;40.05;;;;;;;8.53;nan;99353.03;5057412;28;20071;-74
2024/01/03 03:10:04;;;;;;;93.70;37.08;;;;;;;8.58;nan;99361.28;5061049;28;20159;-73
2024/01/03 03:12:33;;;;;;;97.07;38.70;;;;;;;8.52;nan;99368.03;5062502;28;20044;-75
2024/01/03 03:15:04;;;;;;;96.00;38.55;;;;;;;8.51;nan;99371.66;5061281;28;20048;-74
2024/01/03 03:17:34;;;;;;;96.00;37.42;;;;;;;8.62;nan;99375.00;5059614;28;20048;-74
2024/01/03 03:20:04;;;;;;;87.75;37.05;;;;;;;8.54;nan;99379.25;5059416;28;20472;-73
2024/01/03 03:22:34;;;;;;;90.93;37.05;;;;;;;8.58;nan;99377.94;5062578;28;20118;-74
2024/01/03 03:25:04;;;;;;;91.18;36.17;;;;;;;8.46;nan;99388.97;5051341;28;20139;-74
2024/01/03 03:27:33;;;;;;;86.03;36.17;;;;;;;8.56;nan;99393.13;5062807;28;20064;-74
2024/01/03 03:30:04;;;;;;;85.95;37.50;;;;;;;8.65;nan;99398.41;5057680;28;20049;-73
2024/01/03 03:32:33;;;;;;;93.03;38.72;;;;;;;8.45;nan;99401.34;5047500;28;20044;-74
2024/01/03 03:35:03;;;;;;;94.55;38.65;;;;;;;8.46;nan;99400.34;5058334;28;20048;-74
2024/01/03 03:37:32;;;;;;;103.72;37.50;;;;;;;8.53;nan;99406.66;5062722;28;20048;-75
2024/01/03 03:40:02;;;;;;;89.60;36.55;;;;;;;8.54;nan;99415.41;5062707;28;20044;-73
2024/01/03 03:42:32;;;;;;;87.95;36.90;;;;;;;8.57;nan;99412.44;5059715;28;20083;-73
2024/01/03 03:45:02;;;;;;;88.75;37.03;;;;;;;8.64;nan;99413.44;5054195;28;20055;-73
2024/01/03 03:47:31;;;;;;;96.95;38.72;;;;;;;8.69;nan;99426.97;5061995;28;20150;-74
2024/01/03 03:50:01;;;;;;;96.53;37.92;;;;;;;8.61;nan;99429.59;5061326;28;20128;-74
2024/01/03 03:52:30;;;;;;;87.43;36.10;;;;;;;8.61;nan;99436.69;5058914;28;20048;-74
2024/01/03 03:55:00;;;;;;;89.80;36.65;;;;;;;8.67;nan;99439.53;5060350;28;20041;-74
2024/01/03 03:57:29;;;;;;;93.15;36.83;;;;;;;8.87;nan;99445.31;5043991;28;20057;-74
2024/01/03 03:59:58;;;;;;;102.38;37.05;;;;;;;8.83;nan;99450.09;5040988;28;20053;-74
2024/01/03 04:02:28;;;;;;;101.20;39.78;;;;;;;9.07;nan;99448.50;5041368;28;20055;-73
2024/01/03 04:04:58;;;;;;;99.03;39.60;;;;;;;9.21;nan;99458.38;5021311;28;20059;-74
2024/01/03 04:07:31;;;;;;;98.38;39.20;;;;;;;9.21;nan;99466.31;5042526;28;20440;-73
2024/01/03 04:10:00;;;;;;;92.75;38.03;;;;;;;8.80;nan;99461.00;5041057;28;20044;-73
2024/01/03 04:12:31;;;;;;;83.80;36.03;;;;;;;9.27;nan;99458.56;5041046;28;20046;-75
2024/01/03 04:15:00;;;;;;;94.65;38.63;;;;;;;8.99;nan;99476.53;5039494;28;20094;-74
2024/01/03 04:17:30;;;;;;;88.70;37.08;;;;;;;9.06;nan;99483.81;5039108;28;20057;-74
2024/01/03 04:20:00;;;;;;;89.60;37.92;;;;;;;9.25;nan;99486.16;5037307;28;20045;-75
2024/01/03 04:22:29;;;;;;;90.03;38.20;;;;;;;9.43;nan;99478.84;5039125;28;20053;-74
2024/01/03 04:24:58;;;;;;;96.93;38.35;;;;;;;9.11;nan;99477.06;5044045;28;20163;-75
2024/01/03 04:27:27;;;;;;;92.78;40.33;;;;;;;9.03;nan;99482.31;5034792;28;20053;-75
2024/01/03 04:29:57;;;;;;;98.78;38.55;;;;;;;9.28;nan;99488.47;5037280;28;20057;-74
2024/01/03 04:32:27;;;;;;;84.40;35.58;;;;;;;8.99;nan;99494.19;5045376;28;20994;-74
2024/01/03 04:34:56;;;;;;;84.38;36.63;;;;;;;9.19;nan;99502.66;5045581;28;20114;-74
2024/01/03 04:37:26;;;;;;;92.03;38.95;;;;;;;9.18;nan;99504.47;5041173;28;20055;-73
2024/01/03 04:39:56;;;;;;;89.57;38.33;;;;;;;9.03;nan;99504.28;5043040;28;20578;-73
2024/01/03 04:42:26;;;;;;;89.10;36.65;;;;;;;8.86;nan;99510.53;5042607;28;20046;-73
2024/01/03 04:44:55;;;;;;;83.35;36.20;;;;;;;9.01;nan;99516.00;5045411;28;20052;-74
2024/01/03 04:47:24;;;;;;;90.10;36.97;;;;;;;9.16;nan;99524.94;5042230;28;20500;-74
2024/01/03 04:49:54;;;;;;;85.97;35.67;;;;;;;9.45;nan;99521.84;5043843;28;20055;-73
2024/01/03 04:52:23;;;;;;;86.80;36.80;;;;;;;9.30;nan;99519.00;5041209;28;20045;-74
2024/01/03 04:54:53;;;;;;;93.93;37.72;;;;;;;9.50;nan;99524.81;5028147;28;20052;-76
2024/01/03 04:57:23;;;;;;;85.75;35.60;;;;;;;9.64;nan;99523.31;5040279;28;20065;-72
2024/01/03 04:59:52;;;;;;;89.15;36.78;;;;;;;9.46;nan;99528.78;5042968;28;20526;-73
2024/01/03 05:02:22;;;;;;;100.85;41.05;;;;;;;9.34;nan;99533.53;5038354;28;20053;-73
2024/01/03 05:04:52;;;;;;;97.45;39.55;;;;;;;9.38;nan;99534.88;5046065;28;20134;-72
2024/01/03 05:07:21;;;;;;;91.55;40.08;;;;;;;9.38;nan;99542.00;5019343;28;20134;-76
2024/01/03 05:09:51;;;;;;;88.22;38.28;;;;;;;9.18;nan;99540.63;5029585;28;20317;-75
2024/01/03 05:12:20;;;;;;;99.63;40.92;;;;;;;9.30;nan;99541.97;5022455;28;20056;-75
2024/01/03 05:14:50;;;;;;;84.15;36.13;;;;;;;9.36;nan;99539.50;5040689;28;20749;-74
2024/01/03 05:17:19;;;;;;;82.50;35.33;;;;;;;9.33;nan;99541.66;5042867;28;20118;-73
2024/01/03 05:19:49;;;;;;;90.22;36.85;;;;;;;9.13;nan;99537.66;5040742;28;20888;-72
2024/01/03 05:22:19;;;;;;;83.70;35.85;;;;;;;9.13;nan;99540.28;5042686;28;20419;-70
2024/01/03 05:24:48;;;;;;;89.25;38.35;;;;;;;8.98;nan;99537.47;5040452;28;20672;-71
2024/01/03 05:27:18;;;;;;;89.40;37.40;;;;;;;9.26;nan;99544.13;5037778;28;20114;-72
2024/01/03 05:29:48;;;;;;;89.90;38.08;;;;;;;9.29;nan;99540.34;5036690;28;20127;-70
2024/01/03 05:32:18;;;;;;;86.32;37.90;;;;;;;9.34;nan;99532.72;5020792;28;20479;-74
2024/01/03 05:34:47;;;;;;;97.07;39.30;;;;;;;9.31;nan;99533.06;5041587;28;20608;-69
2024/01/03 05:37:17;;;;;;;91.38;37.75;;;;;;;9.32;nan;99534.72;5030744;28;20474;-69
2024/01/03 05:39:46;;;;;;;86.28;38.40;;;;;;;9.34;nan;99540.66;5037431;28;20064;-70
2024/01/03 05:42:15;;;;;;;102.28;41.17;;;;;;;9.50;nan;99532.75;5041591;28;20743;-69
2024/01/03 05:44:45;;;;;;;86.13;37.03;;;;;;;9.37;nan;99538.53;5046037;28;20064;-68
2024/01/03 05:47:14;;;;;;;92.72;39.35;;;;;;;9.67;nan;99528.28;5046812;28;20163;-67
2024/01/03 05:49:44;;;;;;;93.72;38.67;;;;;;;9.60;nan;99533.41;5046848;28;20056;-69
2024/01/03 05:52:14;;;;;;;87.38;39.00;;;;;;;9.68;nan;99530.75;5052190;28;20053;-70
2024/01/03 05:54:44;;;;;;;100.68;39.05;;;;;;;9.71;nan;99541.00;5047031;28;20048;-71
2024/01/03 05:57:13;;;;;;;96.38;39.92;;;;;;;9.76;nan;99536.03;5055593;28;20064;-69
2024/01/03 05:59:42;;;;;;;102.40;41.90;;;;;;;9.86;nan;99534.06;5065589;28;20041;-66
2024/01/03 06:02:12;;;;;;;98.47;40.10;;;;;;;9.62;nan;99526.13;5059474;28;20056;-66
2024/01/03 06:04:43;;;;;;;105.57;45.55;;;;;;;9.54;nan;99533.25;5067728;28;20040;-71
2024/01/03 06:07:14;;;;;;;95.28;41.92;;;;;;;9.54;nan;99527.94;5062186;28;20757;-68
2024/01/03 06:09:44;;;;;;;100.80;42.75;;;;;;;9.47;nan;99519.84;5052972;28;20051;-69
2024/01/03 06:12:13;;;;;;;94.90;43.42;;;;;;;9.75;nan;99520.31;5062599;28;20048;-70
2024/01/03 06:14:43;;;;;;;106.22;42.97;;;;;;;10.09;nan;99514.81;5066650;28;20040;-71
2024/01/03 06:17:12;;;;;;;118.22;45.67;;;;;;;9.93;nan;99511.22;5065889;28;20056;-67
2024/01/03 06:19:42;;;;;;;105.32;43.55;;;;;;;9.65;nan;99509.91;5065827;28;20114;-68
2024/01/03 06:22:11;;;;;;;104.15;44.58;;;;;;;9.65;nan;99509.91;5059910;28;20052;-68
2024/01/03 06:24:41;;;;;;;102.10;43.70;;;;;;;9.80;nan;99508.25;5056057;28;20041;-66
2024/01/03 06:27:10;;;;;;;115.30;45.47;;;;;;;9.75;nan;99502.63;5060795;28;20162;-67
2024/01/03 06:29:42;;;;;;;102.35;44.30;;;;;;;10.30;nan;99499.25;5059529;28;20066;-68
2024/01/03 06:32:14;;;;;;;110.45;48.28;;;;;;;10.25;nan;99491.81;5059377;28;20132;-68
2024/01/03 06:34:44;;;;;;;116.25;47.63;;;;;;;10.52;nan;99498.47;5055276;28;20044;-68
2024/01/03 06:37:13;;;;;;;124.97;50.90;;;;;;;10.25;nan;99488.31;5062818;28;20143;-68
2024/01/03 06:39:43;;;;;;;122.93;53.03;;;;;;;10.23;nan;99491.13;5061993;28;20471;-69
2024/01/03 06:42:12;;;;;;;117.10;50.65;;;;;;;9.98;nan;99486.06;5063282;28;20072;-68
2024/01/03 06:44:42;;;;;;;122.70;51.65;;;;;;;10.02;nan;99487.38;5062181;28;20058;-68
2024/01/03 06:47:11;;;;;;;129.50;52.05;;;;;;;10.14;nan;99481.53;5066848;28;20048;-68
2024/01/03 06:49:41;;;;;;;130.45;53.00;;;;;;;10.30;nan;99478.06;5078430;28;20044;-68
2024/01/03 06:52:10;;;;;;;138.32;55.42;;;;;;;10.45;nan;99473.66;5057526;28;20113;-67
2024/01/03 06:54:40;;;;;;;141.68;58.53;;;;;;;10.67;nan;99469.41;5060712;28;20040;-67
2024/01/03 06:57:09;;;;;;;149.38;57.35;;;;;;;10.59;nan;99461.53;5049596;28;20482;-68
2024/01/03 06:59:38;;;;;;;152.35;62.40;;;;;;;10.74;nan;99462.44;5049380;28;20055;-66
2024/01/03 07:02:09;;;;;;;150.07;61.28;;;;;;;10.68;nan;99457.84;5028562;28;20126;-67
2024/01/03 07:04:38;;;;;;;164.25;63.35;;;;;;;10.98;nan;99456.13;5043042;28;20059;-68
2024/01/03 07:07:08;;;;;;;146.57;62.42;;;;;;;11.13;nan;99443.78;5040950;28;20080;-68
2024/01/03 07:09:38;;;;;;;137.30;56.03;;;;;;;11.27;nan;99445.66;5037573;28;20096;-68
2024/01/03 07:12:08;;;;;;;134.90;55.55;;;;;;;11.19;nan;99438.59;5035683;28;20586;-68
2024/01/03 07:14:38;;;;;;;141.95;58.42;;;;;;;11.06;nan;99437.56;5040871;28;20055;-68
2024/01/03 07:17:07;;;;;;;146.85;60.83;;;;;;;11.00;nan;99431.13;5039824;28;20052;-68
2024/01/03 07:19:38;;;;;;;150.80;60.40;;;;;;;11.35;nan;99421.72;5018796;28;20081;-68
2024/01/03 07:22:08;;;;;;;151.85;62.42;;;;;;;11.40;nan;99419.34;5030365;28;20052;-67
2024/01/03 07:24:38;;;;;;;151.07;63.17;;;;;;;11.19;nan;99416.56;5028658;28;20126;-67
2024/01/03 07:27:08;;;;;;;166.15;64.68;;;;;;;11.19;nan;99405.97;5043424;28;20482;-67
2024/01/03 07:29:38;;;;;;;177.07;69.38;;;;;;;11.20;nan;99408.41;5015498;28;20064;-68
2024/01/03 07:32:12;;;;;;;180.48;74.72;;;;;;;11.26;nan;99398.94;5000412;28;20063;-68
2024/01/03 07:34:46;;;;;;;185.75;74.05;;;;;;;11.33;nan;99402.50;5024410;28;20040;-67
2024/01/03 07:37:15;;;;;;;196.00;76.90;;;;;;;11.11;nan;99403.34;5036621;28;20072;-68
2024/01/03 07:39:45;;;;;;;190.18;77.25;;;;;;;11.08;nan;99393.94;5013181;28;20439;-68
2024/01/03 07:42:14;;;;;;;197.65;76.20;;;;;;;11.10;nan;99402.56;5031439;28;20064;-68
2024/01/03 07:44:44;;;;;;;194.80;79.28;;;;;;;11.22;nan;99401.13;5035139;28;20194;-68
2024/01/03 07:47:13;;;;;;;203.68;78.45;;;;;;;10.96;nan;99395.38;5037986;28;20053;-68
2024/01/03 07:49:44;;;;;;;211.10;80.30;;;;;;;10.95;nan;99385.78;5035698;28;20041;-68
2024/01/03 07:52:13;;;;;;;200.90;83.32;;;;;;;10.95;nan;99377.81;5058587;28;20052;-68
2024/01/03 07:54:42;;;;;;;205.85;82.88;;;;;;;11.15;nan;99375.50;5051745;28;20521;-68
2024/01/03 07:57:12;;;;;;;222.65;83.68;;;;;;;11.01;nan;99379.78;5043586;28;20052;-68
2024/01/03 07:59:44;;;;;;;220.65;85.10;;;;;;;10.99;nan;99383.59;5065075;28;20056;-68
2024/01/03 08:02:14;;;;;;;203.38;81.93;;;;;;;11.12;nan;99383.81;5053761;28;20146;-68
2024/01/03 08:04:44;;;;;;;205.07;82.03;;;;;;;11.08;nan;99383.34;5061384;28;20058;-69
2024/01/03 08:07:13;;;;;;;205.85;85.20;;;;;;;11.07;nan;99371.09;5062220;28;20132;-68
2024/01/03 08:09:43;;;;;;;211.80;84.60;;;;;;;10.97;nan;99375.00;5064160;28;20040;-67
2024/01/03 08:12:13;;;;;;;221.32;83.35;;;;;;;11.14;nan;99368.56;5063589;28;20379;-67
2024/01/03 08:14:42;;;;;;;218.40;84.40;;;;;;;11.08;nan;99370.09;5064897;28;20075;-67
2024/01/03 08:17:11;;;;;;;210.02;83.25;;;;;;;10.82;nan;99374.94;5056876;28;20492;-68
2024/01/03 08:19:41;;;;;;;205.88;79.22;;;;;;;10.87;nan;99363.81;5052022;28;20076;-68
2024/01/03 08:22:10;;;;;;;228.77;82.60;;;;;;;10.50;nan;99365.41;5053680;28;20131;-69
2024/01/03 08:24:40;;;;;;;186.88;74.72;;;;;;;10.74;nan;99348.53;5052411;28;20137;-69
2024/01/03 08:27:09;;;;;;;183.18;74.93;;;;;;;10.81;nan;99350.28;5036987;28;20509;-70
2024/01/03 08:29:39;;;;;;;200.25;76.32;;;;;;;11.01;nan;99333.88;5079762;28;20036;-70
2024/01/03 08:32:09;;;;;;;188.13;74.22;;;;;;;11.07;nan;99325.19;5063599;28;20055;-70
2024/01/03 08:34:38;;;;;;;178.90;73.95;;;;;;;10.78;nan;99328.63;5055110;28;20159;-70
2024/01/03 08:37:08;;;;;;;193.38;75.65;;;;;;;10.54;nan;99331.44;5053843;28;20056;-71
2024/01/03 08:39:37;;;;;;;183.60;73.75;;;;;;;10.76;nan;99318.19;5056765;28;20117;-70
2024/01/03 08:42:07;;;;;;;181.80;75.47;;;;;;;10.89;nan;99312.28;5059955;28;20129;-69
2024/01/03 08:44:36;;;;;;;179.85;75.50;;;;;;;11.09;nan;99308.13;5063573;28;20044;-70
2024/01/03 08:47:07;;;;;;;181.95;74.25;;;;;;;11.19;nan;99310.53;5068587;28;20040;-69
2024/01/03 08:49:37;;;;;;;191.20;76.90;;;;;;;11.17;nan;99309.88;5070743;28;20123;-70
2024/01/03 08:52:07;;;;;;;192.70;79.18;;;;;;;11.04;nan;99301.72;5066690;28;20052;-69
2024/01/03 08:54:36;;;;;;;185.10;77.28;;;;;;;11.23;nan;99296.72;5040306;28;20071;-71
2024/01/03 08:57:08;;;;;;;190.77;77.60;;;;;;;11.19;nan;99297.25;5062079;28;20407;-70
2024/01/03 08:59:38;;;;;;;181.65;75.20;;;;;;;11.10;nan;99293.06;5060372;28;20490;-70
2024/01/03 09:02:08;;;;;;;197.68;76.93;;;;;;;11.14;nan;99292.50;5061283;28;20052;-70
2024/01/03 09:04:37;;;;;;;184.13;74.00;;;;;;;11.32;nan;99292.16;5054265;28;20448;-70
2024/01/03 09:07:06;;;;;;;189.73;76.75;;;;;;;11.41;nan;99288.41;5037420;28;20603;-68
2024/01/03 09:09:40;;;;;;;192.65;78.78;;;;;;;11.50;nan;99278.53;5042373;28;20045;-69
2024/01/03 09:12:09;;;;;;;180.73;78.15;;;;;;;11.57;nan;99282.91;5040606;28;20144;-71
2024/01/03 09:14:42;;;;;;;184.90;76.50;;;;;;;11.37;nan;99276.53;5040718;28;20048;-69
2024/01/03 09:17:11;;;;;;;170.05;70.78;;;;;;;11.24;nan;99269.19;5039611;28;20056;-70
2024/01/03 09:19:41;;;;;;;184.73;71.65;;;;;;;11.20;nan;99270.56;5057869;28;20062;-69
2024/01/03 09:22:10;;;;;;;173.20;70.85;;;;;;;11.14;nan;99267.81;5062174;28;20063;-70
2024/01/03 09:24:41;;;;;;;168.25;71.00;;;;;;;11.15;nan;99257.03;5030049;28;20133;-70
2024/01/03 09:27:10;;;;;;;170.52;74.22;;;;;;;11.34;nan;99265.44;5042087;28;20096;-70
2024/01/03 09:29:41;;;;;;;181.40;76.90;;;;;;;11.42;nan;99268.00;5043078;28;20053;-69
2024/01/03 09:32:11;;;;;;;178.57;77.70;;;;;;;11.30;nan;99262.34;5041943;28;20488;-69
2024/01/03 09:34:41;;;;;;;167.10;69.55;;;;;;;11.37;nan;99271.22;5049856;28;20036;-70
2024/01/03 09:37:11;;;;;;;164.98;71.68;;;;;;;11.38;nan;99266.72;5062528;28;20048;-68
2024/01/03 09:39:40;;;;;;;152.27;65.47;;;;;;;11.38;nan;99262.22;5063209;28;20059;-69
2024/01/03 09:42:11;;;;;;;148.98;68.95;;;;;;;11.45;nan;99262.34;5050951;28;20136;-70
2024/01/03 09:44:42;;;;;;;158.20;69.07;;;;;;;11.32;nan;99251.56;5045643;28;20060;-68
2024/01/03 09:47:12;;;;;;;152.02;67.10;;;;;;;11.31;nan;99249.91;5048859;28;20076;-67
2024/01/03 09:49:42;;;;;;;153.55;66.05;;;;;;;11.24;nan;99258.56;5043171;28;20049;-69
2024/01/03 09:52:13;;;;;;;154.55;65.30;;;;;;;11.26;nan;99247.78;5048172;28;20095;-68
2024/01/03 09:54:42;;;;;;;142.13;63.60;;;;;;;11.28;nan;99253.75;5048704;28;20079;-68
2024/01/03 09:57:13;;;;;;;136.75;59.83;;;;;;;11.48;nan;99257.47;5057724;28;20060;-69
2024/01/03 09:59:42;;;;;;;131.82;59.00;;;;;;;11.41;nan;99250.44;5062304;28;20136;-69
2024/01/03 10:02:12;;;;;;;147.23;61.25;;;;;;;11.31;nan;99244.59;5061392;28;20056;-70
2024/01/03 10:04:47;;;;;;;139.52;62.70;;;;;;;11.25;nan;99239.00;5062654;28;20062;-67
2024/01/03 10:07:17;;;;;;;135.95;59.88;;;;;;;11.07;nan;99248.34;5057311;28;20043;-69
2024/01/03 10:09:49;;;;;;;159.25;63.15;;;;;;;11.14;nan;99251.91;5062206;28;20605;-69
2024/01/03 10:12:19;;;;;;;144.20;64.07;;;;;;;11.22;nan;99236.75;5049639;28;20337;-69
2024/01/03 10:14:49;;;;;;;144.35;61.97;;;;;;;11.22;nan;99233.25;5041025;28;20044;-68
2024/01/03 10:17:21;;;;;;;145.75;62.58;;;;;;;11.31;nan;99234.81;5036537;28;20118;-70
2024/01/03 10:19:51;;;;;;;150.85;63.53;;;;;;;11.11;nan;99236.34;5053315;28;20064;-67
2024/01/03 10:22:25;;;;;;;167.57;70.00;;;;;;;11.01;nan;99233.19;5058128;28;20533;-67
2024/01/03 10:24:56;;;;;;;155.77;67.07;;;;;;;11.00;nan;99232.34;5059833;28;20041;-68
2024/01/03 10:27:26;;;;;;;154.90;66.20;;;;;;;11.12;nan;99225.59;5045721;28;20047;-68
2024/01/03 10:30:14;;;;;;;152.73;64.43;;;;;;;11.18;nan;99224.03;5044706;28;20136;-67
2024/01/03 10:32:44;;;;;;;164.18;66.05;;;;;;;10.88;nan;99220.56;5042743;28;20044;-68
2024/01/03 10:35:14;;;;;;;151.27;65.68;;;;;;;10.82;nan;99224.75;5040153;28;20055;-67
2024/01/03 10:37:45;;;;;;;150.27;65.78;;;;;;;10.86;nan;99225.22;5038302;28;20048;-66
2024/01/03 10:40:14;;;;;;;153.57;60.53;;;;;;;10.88;nan;99219.72;5040121;28;20049;-68
2024/01/03 10:42:49;;;;;;;145.75;61.92;;;;;;;11.21;nan;99221.00;5038556;28;20048;-69
2024/01/03 10:45:19;;;;;;;143.60;59.72;;;;;;;11.09;nan;99225.97;5037346;28;20045;-69
2024/01/03 10:47:49;;;;;;;152.13;63.70;;;;;;;11.06;nan;99225.50;5040640;28;20048;-69
2024/01/03 10:50:20;;;;;;;149.00;61.42;;;;;;;10.80;nan;99226.75;5055452;28;20086;-69
2024/01/03 10:52:55;;;;;;;145.65;63.75;;;;;;;11.17;nan;99219.72;5043252;28;20045;-68
2024/01/03 10:55:35;;;;;;;154.85;66.15;;;;;;;10.96;nan;99224.94;5044165;28;20091;-67
2024/01/03 10:58:21;;;;;;;140.32;62.33;;;;;;;11.34;nan;99225.66;5055885;28;20542;-69
2024/01/03 11:00:57;;;;;;;153.90;65.57;;;;;;;11.21;nan;99207.75;5060423;28;20040;-68
2024/01/03 11:03:51;;;;;;;151.55;65.05;;;;;;;11.04;nan;99212.44;5058599;28;20045;-69
2024/01/03 11:06:51;;;;;;;147.40;62.60;;;;;;;10.98;nan;99209.66;5057928;28;20040;-71
2024/01/03 11:09:21;;;;;;;153.85;62.53;;;;;;;11.12;nan;99204.38;5053437;28;20059;-70
2024/01/03 11:12:09;;;;;;;151.15;62.60;;;;;;;11.17;nan;99212.59;5059742;28;20044;-69
2024/01/03 11:14:39;;;;;;;138.20;62.45;;;;;;;10.74;nan;99216.06;5066278;28;20467;-70
2024/01/03 11:17:12;;;;;;;140.57;59.13;;;;;;;10.96;nan;99219.66;5072867;28;20052;-71
2024/01/03 11:19:42;;;;;;;142.75;60.05;;;;;;;10.97;nan;99216.81;5056052;28;20048;-69
2024/01/03 11:22:12;;;;;;;150.60;58.67;;;;;;;10.96;nan;99215.16;5042451;28;20140;-69
2024/01/03 11:24:41;;;;;;;139.18;59.33;;;;;;;11.12;nan;99203.53;5072022;28;20059;-70
2024/01/03 11:27:19;;;;;;;138.75;59.78;;;;;;;10.72;nan;99213.59;5066777;28;20059;-70
2024/01/03 11:29:53;;;;;;;141.10;60.28;;;;;;;10.65;nan;99217.97;5067339;28;20561;-69
2024/01/03 11:32:29;;;;;;;;;;;;;;;10.87;nan;99210.13;5068497;28;20492;-69
2024/01/03 11:35:05;;;;;;;150.25;60.33;;;;;;;10.61;nan;99214.03;5075323;28;19924;-70
2024/01/03 11:37:36;;;;;;;;;;;;;;;10.65;nan;99204.72;5061087;28;20048;-69
2024/01/03 11:40:08;;;;;;;138.98;57.53;;;;;;;10.63;nan;99198.78;5060827;28;19943;-69
2024/01/03 11:42:39;;;;;;;148.00;60.17;;;;;;;10.62;nan;99202.41;5060981;28;20048;-72
2024/01/03 11:45:13;;;;;;;148.55;62.10;;;;;;;10.63;nan;99204.06;5039157;28;20059;-68
2024/01/03 11:47:46;;;;;;;151.20;60.25;;;;;;;10.51;nan;99207.34;5062730;28;20135;-68
2024/01/03 11:50:17;;;;;;;148.32;60.75;;;;;;;10.63;nan;99208.53;5072642;28;20062;-69